createdAt,value
2022-10-24T00:01:18.614Z,11.23
2022-10-24T00:03:45.713Z,11.10
2022-10-24T00:06:14.666Z,11.09
2022-10-24T00:08:42.985Z,11.17
2022-10-24T00:11:14.891Z,11.12
2022-10-24T00:13:42.211Z,11.04
2022-10-24T00:16:10.243Z,11.01
2022-10-24T00:18:37.666Z,10.99
2022-10-24T00:21:05.652Z,10.90
2022-10-24T00:23:34.279Z,10.97
2022-10-24T00:26:02.724Z,10.89
2022-10-24T00:28:30.193Z,10.86
2022-10-24T00:30:59.157Z,10.92
2022-10-24T00:33:26.760Z,10.84
2022-10-24T00:35:53.763Z,10.91
2022-10-24T00:38:20.665Z,10.92
2022-10-24T00:40:51.380Z,10.89
2022-10-24T00:43:21.727Z,10.88
2022-10-24T00:45:50.648Z,10.93
2022-10-24T00:48:22.891Z,11.03
2022-10-24T00:50:52.436Z,11.08
2022-10-24T00:53:20.303Z,10.96
2022-10-24T00:55:49.553Z,10.87
2022-10-24T00:58:21.748Z,10.77
2022-10-24T01:00:49.082Z,10.51
2022-10-24T01:03:16.258Z,10.62
2022-10-24T01:05:57.908Z,10.59
2022-10-24T01:08:36.908Z,10.59
2022-10-24T01:11:15.766Z,10.55
2022-10-24T01:13:57.689Z,10.57
2022-10-24T01:16:29.868Z,10.56
2022-10-24T01:19:08.052Z,10.44
2022-10-24T01:21:37.495Z,10.50
2022-10-24T01:24:33.700Z,10.39
2022-10-24T01:27:31.161Z,10.34
2022-10-24T01:30:05.188Z,10.42
2022-10-24T01:32:48.713Z,10.37
2022-10-24T01:35:28.362Z,10.35
2022-10-24T01:38:02.087Z,10.14
2022-10-24T01:40:33.929Z,10.25
2022-10-24T01:43:09.244Z,10.38
2022-10-24T01:45:40.163Z,10.38
2022-10-24T01:48:12.251Z,10.40
2022-10-24T01:50:41.802Z,10.33
2022-10-24T01:53:09.983Z,10.28
2022-10-24T01:55:39.100Z,10.27
2022-10-24T01:58:07.078Z,10.33
2022-10-24T02:00:35.830Z,10.33
2022-10-24T02:03:11.820Z,10.30
2022-10-24T02:05:46.131Z,10.32
2022-10-24T02:08:17.356Z,10.25
2022-10-24T02:10:48.629Z,10.25
2022-10-24T02:13:19.671Z,10.23
2022-10-24T02:15:52.327Z,10.28
2022-10-24T02:18:21.122Z,10.29
2022-10-24T02:20:55.600Z,10.33
2022-10-24T02:23:30.856Z,10.39
2022-10-24T02:26:04.749Z,10.37
2022-10-24T02:28:39.729Z,10.32
2022-10-24T02:31:11.367Z,10.29
2022-10-24T02:33:41.042Z,10.25
2022-10-24T02:36:12.210Z,10.24
2022-10-24T02:38:42.509Z,10.26
2022-10-24T02:41:13.090Z,10.22
2022-10-24T02:43:42.298Z,10.25
2022-10-24T02:46:12.392Z,10.26
2022-10-24T02:48:45.207Z,10.39
2022-10-24T02:51:14.256Z,10.43
2022-10-24T02:53:41.193Z,10.64
2022-10-24T02:56:08.154Z,10.58
2022-10-24T02:58:36.039Z,10.55
2022-10-24T03:01:03.041Z,10.46
2022-10-24T03:03:29.971Z,10.34
2022-10-24T03:06:00.432Z,10.31
2022-10-24T03:08:27.462Z,10.30
2022-10-24T03:10:54.397Z,10.29
2022-10-24T03:13:21.291Z,10.28
2022-10-24T03:18:16.073Z,10.19
2022-10-24T03:20:42.825Z,10.24
2022-10-24T03:23:11.078Z,10.45
2022-10-24T03:25:37.966Z,10.54
2022-10-24T03:28:05.454Z,10.51
2022-10-24T03:30:32.256Z,10.71
2022-10-24T03:33:00.258Z,10.70
2022-10-24T03:35:27.051Z,10.73
2022-10-24T03:37:54.356Z,10.74
2022-10-24T03:40:22.711Z,10.69
2022-10-24T03:42:49.538Z,10.75
2022-10-24T03:45:16.508Z,10.74
2022-10-24T03:47:44.532Z,10.79
2022-10-24T03:50:11.393Z,10.77
2022-10-24T03:52:38.256Z,10.81
2022-10-24T03:55:05.975Z,10.79
2022-10-24T03:57:34.980Z,10.83
2022-10-24T04:00:02.001Z,10.93
2022-10-24T04:02:28.782Z,10.87
2022-10-24T04:04:55.770Z,10.85
2022-10-24T04:07:25.075Z,10.82
2022-10-24T04:09:53.856Z,10.75
2022-10-24T04:12:20.629Z,10.69
2022-10-24T04:14:52.046Z,10.66
2022-10-24T04:17:19.227Z,10.58
2022-10-24T04:19:46.236Z,10.60
2022-10-24T04:22:13.056Z,10.63
2022-10-24T04:24:42.591Z,10.57
2022-10-24T04:27:09.535Z,10.56
2022-10-24T04:29:36.471Z,10.51
2022-10-24T04:32:04.950Z,10.50
2022-10-24T04:34:34.238Z,10.40
2022-10-24T04:37:01.098Z,10.38
2022-10-24T04:39:29.686Z,10.30
2022-10-24T04:41:56.634Z,10.32
2022-10-24T04:44:24.454Z,10.37
2022-10-24T04:46:51.747Z,10.39
2022-10-24T04:49:21.908Z,10.34
2022-10-24T04:51:48.907Z,10.33
2022-10-24T04:54:15.955Z,10.40
2022-10-24T04:56:42.727Z,10.49
2022-10-24T04:59:09.456Z,10.54
2022-10-24T05:01:36.866Z,10.53
2022-10-24T05:04:04.097Z,10.46
2022-10-24T05:06:33.932Z,10.39
2022-10-24T05:09:00.730Z,10.44
2022-10-24T05:11:27.803Z,10.26
2022-10-24T05:13:54.611Z,10.30
2022-10-24T05:16:21.907Z,10.34
2022-10-24T05:18:49.454Z,10.37
2022-10-24T05:21:18.566Z,10.37
2022-10-24T05:23:46.792Z,10.43
2022-10-24T05:26:14.816Z,10.45
2022-10-24T05:28:42.103Z,10.40
2022-10-24T05:31:11.419Z,10.40
2022-10-24T05:33:39.398Z,10.47
2022-10-24T05:36:08.133Z,10.48
2022-10-24T05:38:37.522Z,10.68
2022-10-24T05:41:06.963Z,10.63
2022-10-24T05:43:35.703Z,10.51
2022-10-24T05:46:02.872Z,10.56
2022-10-24T05:48:29.751Z,10.53
2022-10-24T05:50:59.476Z,10.31
2022-10-24T05:53:28.807Z,10.27
2022-10-24T05:55:56.348Z,10.30
2022-10-24T05:58:27.284Z,10.39
2022-10-24T06:00:54.549Z,10.37
2022-10-24T06:03:25.147Z,10.52
2022-10-24T06:05:51.962Z,10.52
2022-10-24T06:08:19.619Z,10.55
2022-10-24T06:10:49.011Z,10.63
2022-10-24T06:15:50.027Z,10.50
2022-10-24T06:18:17.673Z,10.54
2022-10-24T06:20:46.115Z,10.56
2022-10-24T06:23:13.119Z,10.55
2022-10-24T06:25:46.067Z,10.60
2022-10-24T06:28:12.850Z,10.66
2022-10-24T06:30:41.025Z,10.60
2022-10-24T06:33:10.180Z,10.56
2022-10-24T06:35:37.610Z,10.69
2022-10-24T06:38:04.565Z,10.79
2022-10-24T06:40:31.331Z,10.88
2022-10-24T06:45:40.330Z,10.85
2022-10-24T06:48:07.273Z,11.00
2022-10-24T06:50:36.896Z,11.21
2022-10-24T06:53:03.655Z,11.25
2022-10-24T06:55:30.650Z,11.04
2022-10-24T06:57:58.928Z,11.10
2022-10-24T07:02:55.644Z,11.23
2022-10-24T07:05:24.051Z,11.20
2022-10-24T07:07:52.786Z,11.24
2022-10-24T07:10:19.760Z,11.36
2022-10-24T07:12:47.844Z,11.40
2022-10-24T07:15:15.003Z,11.46
2022-10-24T07:17:43.298Z,11.48
2022-10-24T07:20:11.858Z,11.73
2022-10-24T07:22:39.943Z,11.87
2022-10-24T07:25:10.053Z,12.07
2022-10-24T07:27:37.503Z,12.31
2022-10-24T07:30:05.854Z,12.53
2022-10-24T07:32:37.103Z,12.72
2022-10-24T07:35:04.227Z,12.87
2022-10-24T07:37:31.429Z,13.08
2022-10-24T07:39:59.646Z,13.28
2022-10-24T07:42:30.442Z,13.39
2022-10-24T07:44:57.559Z,13.61
2022-10-24T07:47:27.773Z,13.84
2022-10-24T07:49:54.536Z,14.03
2022-10-24T07:52:21.757Z,14.32
2022-10-24T07:54:48.751Z,14.51
2022-10-24T07:57:15.606Z,14.60
2022-10-24T07:59:45.034Z,14.61
2022-10-24T08:02:12.681Z,14.73
2022-10-24T08:04:40.740Z,14.76
2022-10-24T08:07:13.780Z,14.87
2022-10-24T08:09:44.469Z,14.95
2022-10-24T08:12:11.722Z,14.88
2022-10-24T08:14:40.796Z,14.80
2022-10-24T08:17:11.747Z,14.60
2022-10-24T08:19:42.376Z,14.49
2022-10-24T08:22:11.062Z,14.43
2022-10-24T08:24:38.058Z,14.31
2022-10-24T08:27:04.802Z,14.46
2022-10-24T08:29:31.718Z,14.58
2022-10-24T08:31:58.772Z,14.66
2022-10-24T08:34:27.377Z,14.76
2022-10-24T08:36:54.594Z,14.65
2022-10-24T08:39:21.767Z,14.73
2022-10-24T08:41:54.548Z,14.73
2022-10-24T08:44:28.216Z,14.78
2022-10-24T08:47:03.334Z,14.85
2022-10-24T08:49:39.182Z,14.96
2022-10-24T08:52:16.605Z,15.15
2022-10-24T08:54:45.626Z,15.21
2022-10-24T08:57:19.838Z,15.16
2022-10-24T08:59:47.090Z,15.12
2022-10-24T09:02:20.321Z,15.21
2022-10-24T09:04:53.756Z,15.29
2022-10-24T09:07:22.174Z,15.38
2022-10-24T09:09:51.906Z,15.45
2022-10-24T09:12:20.905Z,15.46
2022-10-24T09:14:54.672Z,15.53
2022-10-24T09:17:23.511Z,15.59
2022-10-24T09:19:55.366Z,15.73
2022-10-24T09:22:23.539Z,15.63
2022-10-24T09:24:53.558Z,15.62
2022-10-24T09:27:23.885Z,15.71
2022-10-24T09:29:52.622Z,15.86
2022-10-24T09:32:21.866Z,15.93
2022-10-24T09:34:49.313Z,16.01
2022-10-24T09:37:37.600Z,16.16
2022-10-24T09:40:21.940Z,16.35
2022-10-24T09:42:53.861Z,16.39
2022-10-24T09:45:31.854Z,16.35
2022-10-24T09:48:03.527Z,16.09
2022-10-24T09:50:34.075Z,16.06
2022-10-24T09:53:05.104Z,15.97
2022-10-24T09:55:32.310Z,15.22
2022-10-24T09:58:00.616Z,15.22
2022-10-24T10:00:30.146Z,15.22
2022-10-24T10:03:02.320Z,15.27
2022-10-24T10:05:42.948Z,15.37
2022-10-24T10:08:16.234Z,15.58
2022-10-24T10:10:43.327Z,15.69
2022-10-24T10:13:25.287Z,15.85
2022-10-24T10:15:55.154Z,16.04
2022-10-24T10:18:27.884Z,16.18
2022-10-24T10:21:02.008Z,16.41
2022-10-24T10:23:32.631Z,16.54
2022-10-24T10:26:05.975Z,16.85
2022-10-24T10:28:35.940Z,17.11
2022-10-24T10:31:03.821Z,17.20
2022-10-24T10:36:10.088Z,17.58
2022-10-24T10:39:07.602Z,17.86
2022-10-24T10:41:44.924Z,18.02
2022-10-24T10:44:32.755Z,18.10
2022-10-24T10:47:11.796Z,18.06
2022-10-24T10:49:41.484Z,17.97
2022-10-24T10:52:13.178Z,17.82
2022-10-24T10:55:07.131Z,17.74
2022-10-24T10:57:41.219Z,17.64
2022-10-24T11:00:10.000Z,17.54
2022-10-24T11:02:55.751Z,17.45
2022-10-24T11:05:33.690Z,17.06
2022-10-24T11:08:17.321Z,17.07
2022-10-24T11:10:53.950Z,16.98
2022-10-24T11:13:26.951Z,16.89
2022-10-24T11:15:58.921Z,16.82
2022-10-24T11:18:35.332Z,16.68
2022-10-24T11:21:06.972Z,16.59
2022-10-24T11:23:39.110Z,16.17
2022-10-24T11:26:11.303Z,16.05
2022-10-24T11:28:44.510Z,15.97
2022-10-24T11:31:16.379Z,15.94
2022-10-24T11:33:47.677Z,15.82
2022-10-24T11:36:20.540Z,15.74
2022-10-24T11:38:56.512Z,15.74
2022-10-24T11:41:44.437Z,15.76
2022-10-24T11:44:23.247Z,15.83
2022-10-24T11:46:56.972Z,15.82
2022-10-24T11:49:30.798Z,15.74
2022-10-24T11:52:05.015Z,15.71
2022-10-24T11:54:36.857Z,15.45
2022-10-24T11:57:11.378Z,15.22
2022-10-24T11:59:43.229Z,15.01
2022-10-24T12:02:49.425Z,14.80
2022-10-24T12:05:26.877Z,14.78
2022-10-24T12:08:26.829Z,14.65
2022-10-24T12:11:08.813Z,14.62
2022-10-24T12:13:52.301Z,14.45
2022-10-24T12:16:32.102Z,14.52
2022-10-24T12:19:02.517Z,14.55
2022-10-24T12:21:37.364Z,14.61
2022-10-24T12:24:04.966Z,14.70
2022-10-24T12:26:33.613Z,14.63
2022-10-24T12:29:07.908Z,14.66
2022-10-24T12:31:36.162Z,14.70
2022-10-24T12:34:40.063Z,14.71
2022-10-24T12:37:30.144Z,14.59
2022-10-24T12:39:59.386Z,14.60
2022-10-24T12:43:15.498Z,14.52
2022-10-24T12:45:45.241Z,14.50
2022-10-24T12:48:36.923Z,14.50
2022-10-24T12:51:28.440Z,14.58
2022-10-24T12:54:05.199Z,14.63
2022-10-24T12:56:34.963Z,14.60
2022-10-24T12:59:15.102Z,14.77
2022-10-24T13:01:45.869Z,14.96
2022-10-24T13:04:49.792Z,15.23
2022-10-24T13:07:38.413Z,15.62
2022-10-24T13:10:25.387Z,15.90
2022-10-24T13:15:49.012Z,16.43
2022-10-24T13:18:31.321Z,16.53
2022-10-24T13:21:28.795Z,16.62
2022-10-24T13:24:11.524Z,16.66
2022-10-24T13:26:40.989Z,16.62
2022-10-24T13:29:13.683Z,16.72
2022-10-24T13:31:45.177Z,16.73
2022-10-24T13:34:21.013Z,16.69
2022-10-24T13:36:52.015Z,16.73
2022-10-24T13:39:24.072Z,16.72
2022-10-24T13:41:58.383Z,16.68
2022-10-24T13:44:29.854Z,16.65
2022-10-24T13:47:03.667Z,16.55
2022-10-24T13:49:37.158Z,16.44
2022-10-24T13:52:13.747Z,16.47
2022-10-24T13:54:46.501Z,16.38
2022-10-24T13:57:27.908Z,16.33
2022-10-24T13:59:57.599Z,16.36
2022-10-24T14:02:29.910Z,16.36
2022-10-24T14:05:01.280Z,16.32
2022-10-24T14:07:32.775Z,16.26
2022-10-24T14:10:02.663Z,16.26
2022-10-24T14:12:33.020Z,16.25
2022-10-24T14:15:00.881Z,16.21
2022-10-24T14:17:30.458Z,16.19
2022-10-24T14:19:59.331Z,16.16
2022-10-24T14:22:30.107Z,16.15
2022-10-24T14:24:57.154Z,15.86
2022-10-24T14:27:24.545Z,15.81
2022-10-24T14:30:04.332Z,15.73
2022-10-24T14:32:31.842Z,15.73
2022-10-24T14:37:38.661Z,15.49
2022-10-24T14:40:15.022Z,15.61
2022-10-24T14:42:43.559Z,15.58
2022-10-24T14:45:23.982Z,15.53
2022-10-24T14:47:52.521Z,15.49
2022-10-24T14:50:41.240Z,15.27
2022-10-24T14:53:23.831Z,15.18
2022-10-24T14:55:53.734Z,15.10
2022-10-24T14:58:26.803Z,15.00
2022-10-24T15:00:55.526Z,14.90
2022-10-24T15:03:23.851Z,14.87
2022-10-24T15:05:58.496Z,14.73
2022-10-24T15:08:35.172Z,14.63
2022-10-24T15:11:15.301Z,14.62
2022-10-24T15:13:50.888Z,14.62
2022-10-24T15:16:27.339Z,14.47
2022-10-24T15:18:56.785Z,14.34
2022-10-24T15:21:26.624Z,14.37
2022-10-24T15:23:57.254Z,14.29
2022-10-24T15:26:27.431Z,14.24
2022-10-24T15:29:04.062Z,14.17
2022-10-24T15:31:34.407Z,13.98
2022-10-24T15:34:01.570Z,14.01
2022-10-24T15:36:31.759Z,14.04
2022-10-24T15:39:02.087Z,14.03
2022-10-24T15:41:29.227Z,13.98
2022-10-24T15:43:57.199Z,13.97
2022-10-24T15:46:26.245Z,13.90
2022-10-24T15:48:53.211Z,13.88
2022-10-24T15:51:23.307Z,13.90
2022-10-24T15:53:50.845Z,13.76
2022-10-24T15:56:19.379Z,13.69
2022-10-24T16:01:26.936Z,13.72
2022-10-24T16:03:54.293Z,13.66
2022-10-24T16:06:21.162Z,13.67
2022-10-24T16:08:50.449Z,13.53
2022-10-24T16:11:19.384Z,13.41
2022-10-24T16:13:49.630Z,13.31
2022-10-24T16:16:16.749Z,13.31
2022-10-24T16:18:48.643Z,13.36
2022-10-24T16:21:18.269Z,13.36
2022-10-24T16:23:45.543Z,13.24
2022-10-24T16:26:12.722Z,13.04
2022-10-24T16:28:42.766Z,13.02
2022-10-24T16:31:11.932Z,13.16
2022-10-24T16:33:40.011Z,13.18
2022-10-24T16:36:07.183Z,13.24
2022-10-24T16:38:34.319Z,13.23
2022-10-24T16:41:01.130Z,13.21
2022-10-24T16:43:28.523Z,13.12
2022-10-24T16:46:00.797Z,13.18
2022-10-24T16:48:27.805Z,13.12
2022-10-24T16:50:57.682Z,13.03
2022-10-24T16:53:24.744Z,12.98
2022-10-24T16:55:56.154Z,12.87
2022-10-24T16:58:23.425Z,12.81
2022-10-24T17:00:51.670Z,12.83
2022-10-24T17:03:19.795Z,12.62
2022-10-24T17:05:49.084Z,12.54
2022-10-24T17:08:15.954Z,12.40
2022-10-24T17:10:44.166Z,12.33
2022-10-24T17:13:11.015Z,12.17
2022-10-24T17:15:38.911Z,12.10
2022-10-24T17:18:06.173Z,12.01
2022-10-24T17:20:36.875Z,12.02
2022-10-24T17:23:06.364Z,11.92
2022-10-24T17:25:33.931Z,11.93
2022-10-24T17:28:00.967Z,11.95
2022-10-24T17:30:28.823Z,11.95
2022-10-24T17:32:59.019Z,11.88
2022-10-24T17:35:26.917Z,11.78
2022-10-24T17:38:07.092Z,11.80
2022-10-24T17:40:41.332Z,11.76
2022-10-24T17:43:20.255Z,11.66
2022-10-24T17:45:48.009Z,11.31
2022-10-24T17:48:16.551Z,11.03
2022-10-24T17:50:45.581Z,10.75
2022-10-24T17:53:17.377Z,10.58
2022-10-24T17:55:47.579Z,10.23
2022-10-24T17:58:18.696Z,9.92
2022-10-24T18:00:46.506Z,9.57
2022-10-24T18:03:14.463Z,9.48
2022-10-24T18:05:42.664Z,9.45
2022-10-24T18:08:14.555Z,9.41
2022-10-24T18:10:41.805Z,9.35
2022-10-24T18:13:09.348Z,9.40
2022-10-24T18:15:37.023Z,9.48
2022-10-24T18:18:04.484Z,9.35
2022-10-24T18:20:34.920Z,9.45
2022-10-24T18:23:03.256Z,9.49
2022-10-24T18:25:31.685Z,9.47
2022-10-24T18:27:58.798Z,9.50
2022-10-24T18:30:25.942Z,9.43
2022-10-24T18:32:52.899Z,9.42
2022-10-24T18:35:19.753Z,9.33
2022-10-24T18:37:46.712Z,9.42
2022-10-24T18:40:15.126Z,9.34
2022-10-24T18:42:51.763Z,9.24
2022-10-24T18:45:21.315Z,9.16
2022-10-24T18:47:49.305Z,9.19
2022-10-24T18:50:18.841Z,9.24
2022-10-24T18:52:51.911Z,9.21
2022-10-24T18:55:21.065Z,9.26
2022-10-24T18:57:51.400Z,9.26
2022-10-24T19:00:20.811Z,9.23
2022-10-24T19:03:06.003Z,9.25
2022-10-24T19:05:42.025Z,9.29
2022-10-24T19:08:13.569Z,9.32
2022-10-24T19:10:41.468Z,9.33
2022-10-24T19:13:11.648Z,9.32
2022-10-24T19:15:42.476Z,9.32
2022-10-24T19:18:12.163Z,9.35
2022-10-24T19:20:39.094Z,9.32
2022-10-24T19:23:06.079Z,9.26
2022-10-24T19:25:33.515Z,9.26
2022-10-24T19:28:04.302Z,9.22
2022-10-24T19:30:32.647Z,9.24
2022-10-24T19:32:59.390Z,9.19
2022-10-24T19:35:26.356Z,9.11
2022-10-24T19:37:53.500Z,9.10
2022-10-24T19:40:20.460Z,9.04
2022-10-24T19:42:47.296Z,9.13
2022-10-24T19:45:14.321Z,9.05
2022-10-24T19:47:42.805Z,9.03
2022-10-24T19:50:11.125Z,8.88
2022-10-24T19:52:38.188Z,8.84
2022-10-24T19:55:06.079Z,8.77
2022-10-24T19:57:33.091Z,8.84
2022-10-24T20:00:00.137Z,8.88
2022-10-24T20:02:26.894Z,8.76
2022-10-24T20:04:55.592Z,8.76
2022-10-24T20:07:22.603Z,8.71
2022-10-24T20:09:49.489Z,8.69
2022-10-24T20:12:16.738Z,8.78
2022-10-24T20:14:45.712Z,8.69
2022-10-24T20:17:14.036Z,8.73
2022-10-24T20:19:41.970Z,8.71
2022-10-24T20:22:12.710Z,8.76
2022-10-24T20:24:39.877Z,8.71
2022-10-24T20:29:38.447Z,8.68
2022-10-24T20:32:06.606Z,8.70
2022-10-24T20:34:36.441Z,8.63
2022-10-24T20:37:05.714Z,8.51
2022-10-24T20:39:33.973Z,8.53
2022-10-24T20:42:03.341Z,8.55
2022-10-24T20:44:31.612Z,8.58
2022-10-24T20:46:58.683Z,8.61
2022-10-24T20:49:25.755Z,8.54
2022-10-24T20:51:54.844Z,8.51
2022-10-24T20:54:21.711Z,8.64
2022-10-24T20:56:50.323Z,8.67
2022-10-24T20:59:21.346Z,8.62
2022-10-24T21:01:49.351Z,8.70
2022-10-24T21:04:20.775Z,8.65
2022-10-24T21:06:47.875Z,8.58
2022-10-24T21:09:15.003Z,8.66
2022-10-24T21:11:41.839Z,8.62
2022-10-24T21:14:12.832Z,8.54
2022-10-24T21:16:39.694Z,8.57
2022-10-24T21:19:07.726Z,8.49
2022-10-24T21:21:34.772Z,8.58
2022-10-24T21:24:04.445Z,8.62
2022-10-24T21:26:33.721Z,8.55
2022-10-24T21:29:08.911Z,8.48
2022-10-24T21:31:43.270Z,8.44
2022-10-24T21:34:11.953Z,8.43
2022-10-24T21:36:38.887Z,8.47
2022-10-24T21:39:05.910Z,8.46
2022-10-24T21:41:33.731Z,8.49
2022-10-24T21:44:00.711Z,8.41
2022-10-24T21:46:28.314Z,8.36
2022-10-24T21:48:57.312Z,8.37
2022-10-24T21:51:26.719Z,8.39
2022-10-24T21:53:55.419Z,8.44
2022-10-24T21:56:26.535Z,8.48
2022-10-24T21:58:55.073Z,8.46
2022-10-24T22:01:25.041Z,8.35
2022-10-24T22:03:52.475Z,8.31
2022-10-24T22:06:21.838Z,8.33
2022-10-24T22:08:49.695Z,8.36
2022-10-24T22:11:19.908Z,8.41
2022-10-24T22:13:47.075Z,8.41
2022-10-24T22:16:14.728Z,8.37
2022-10-24T22:18:41.893Z,8.29
2022-10-24T22:21:14.240Z,8.28
2022-10-24T22:23:42.482Z,8.31
2022-10-24T22:26:09.379Z,8.31
2022-10-24T22:28:36.434Z,8.31
2022-10-24T22:31:03.955Z,8.31
2022-10-24T22:33:34.335Z,8.31
2022-10-24T22:36:06.146Z,8.32
2022-10-24T22:38:35.644Z,8.31
2022-10-24T22:41:04.704Z,8.36
2022-10-24T22:43:32.251Z,8.27
2022-10-24T22:46:13.792Z,8.30
2022-10-24T22:48:45.163Z,8.27
2022-10-24T22:51:16.289Z,8.18
2022-10-24T22:53:43.648Z,8.15
2022-10-24T22:56:18.741Z,8.15
2022-10-24T22:58:46.091Z,8.19
2022-10-24T23:01:28.790Z,8.19
2022-10-24T23:04:03.317Z,8.19
2022-10-24T23:06:39.944Z,8.20
2022-10-24T23:09:06.803Z,8.21
2022-10-24T23:11:36.771Z,8.18
2022-10-24T23:14:04.631Z,8.23
2022-10-24T23:16:39.058Z,8.36
2022-10-24T23:19:12.007Z,8.27
2022-10-24T23:21:45.604Z,8.24
2022-10-24T23:24:16.051Z,8.19
2022-10-24T23:26:55.428Z,8.21
2022-10-24T23:29:29.521Z,8.21
2022-10-24T23:31:58.307Z,8.19
2022-10-24T23:34:26.106Z,8.19
2022-10-24T23:36:58.456Z,8.19
2022-10-24T23:39:30.656Z,8.15
2022-10-24T23:41:59.697Z,8.18
2022-10-24T23:44:27.007Z,8.16
2022-10-24T23:47:00.818Z,8.28
2022-10-24T23:49:36.047Z,8.27
2022-10-24T23:52:12.036Z,8.28
2022-10-24T23:54:39.602Z,8.32
2022-10-24T23:57:15.065Z,8.19
2022-10-24T23:59:42.162Z,8.07
